Time;durP1;ratioP1;P1;durP2;ratioP2;P2;SDS_P1;SDS_P2;PMS_P1;PMS_P2;Temp;Humidity;BMP_temperature;BMP_pressure;BME280_temperature;BME280_humidity;BME280_pressure;Samples;Min_cycle;Max_cycle;Signal;HPM_P1;HPM_P2
2022/12/25 00:00:32;;;;;;;16.17;5.88;;;;;;;7.45;100.00;101395.25;5062790;28;20029;-80
2022/12/25 00:02:58;;;;;;;15.45;4.75;;;;;;;7.47;100.00;101390.63;5044828;28;20028;-80
2022/12/25 00:05:23;;;;;;;12.10;5.45;;;;;;;7.50;100.00;101388.66;5065318;28;20029;-80
2022/12/25 00:07:48;;;;;;;24.65;5.72;;;;;;;7.51;100.00;101379.69;5062606;28;20528;-80
2022/12/25 00:10:14;;;;;;;13.18;4.97;;;;;;;7.57;100.00;101379.03;5046306;28;20032;-81
2022/12/25 00:12:39;;;;;;;22.90;6.75;;;;;;;7.59;100.00;101372.56;5063130;28;20027;-80
2022/12/25 00:15:05;;;;;;;16.83;5.55;;;;;;;7.57;100.00;101363.94;5062357;28;20238;-80
2022/12/25 00:17:30;;;;;;;18.38;5.60;;;;;;;7.62;100.00;101377.56;5059774;28;20158;-80
2022/12/25 00:19:56;;;;;;;28.15;7.32;;;;;;;7.64;100.00;101385.34;5062981;28;20120;-80
2022/12/25 00:22:21;;;;;;;14.50;7.00;;;;;;;7.69;100.00;101393.66;5062609;28;20040;-80
2022/12/25 00:24:47;;;;;;;15.88;5.95;;;;;;;7.70;100.00;101382.03;5062623;28;20589;-80
2022/12/25 00:27:12;;;;;;;20.65;6.45;;;;;;;7.71;100.00;101380.22;5060102;28;20056;-80
2022/12/25 00:29:38;;;;;;;17.92;5.15;;;;;;;7.60;100.00;101358.31;5060748;28;20086;-80
2022/12/25 00:32:03;;;;;;;14.07;5.80;;;;;;;7.75;100.00;101379.69;5060345;28;20032;-81
2022/12/25 00:34:29;;;;;;;20.98;5.07;;;;;;;7.77;100.00;101368.94;5043711;28;20170;-80
2022/12/25 00:36:54;;;;;;;16.65;5.32;;;;;;;7.76;100.00;101370.75;5061856;28;20064;-80
2022/12/25 00:39:19;;;;;;;18.63;5.72;;;;;;;7.82;100.00;101374.56;5061920;28;20062;-80
2022/12/25 00:44:29;;;;;;;15.73;5.25;;;;;;;7.83;100.00;101379.72;5046288;28;20036;-80
2022/12/25 00:46:54;;;;;;;24.17;5.03;;;;;;;7.83;100.00;101366.44;5063202;28;20057;-80
2022/12/25 00:49:22;;;;;;;20.38;7.40;;;;;;;7.83;100.00;101360.28;5058957;28;20064;-80
2022/12/25 00:51:50;;;;;;;19.48;5.57;;;;;;;7.89;100.00;101368.44;5062016;28;20028;-80
2022/12/25 00:54:16;;;;;;;17.80;5.47;;;;;;;7.88;100.00;101360.63;5061479;28;20108;-79
2022/12/25 00:56:42;;;;;;;17.30;5.55;;;;;;;7.89;100.00;101371.09;5061728;28;20119;-80
2022/12/25 00:59:08;;;;;;;16.85;5.45;;;;;;;7.88;100.00;101369.41;5062001;28;20067;-79
2022/12/25 01:01:33;;;;;;;14.90;5.20;;;;;;;7.87;100.00;101362.47;5062940;28;20062;-80
2022/12/25 01:03:59;;;;;;;15.45;6.03;;;;;;;7.89;100.00;101370.28;5045482;28;20551;-80
2022/12/25 01:06:25;;;;;;;13.35;5.63;;;;;;;7.89;100.00;101363.13;5059929;28;20033;-80
2022/12/25 01:11:35;;;;;;;14.75;4.15;;;;;;;7.89;100.00;101355.16;5062974;28;20043;-79
2022/12/25 01:14:00;;;;;;;19.00;6.70;;;;;;;7.92;100.00;101353.16;5042359;28;20033;-80
2022/12/25 01:16:26;;;;;;;14.60;4.57;;;;;;;7.92;100.00;101355.81;5061556;28;20044;-80
2022/12/25 01:18:51;;;;;;;14.90;4.85;;;;;;;7.93;100.00;101349.50;5061082;28;20024;-80
2022/12/25 01:21:21;;;;;;;17.02;5.15;;;;;;;7.91;100.00;101344.34;5059226;28;20479;-80
2022/12/25 01:23:47;;;;;;;17.13;6.10;;;;;;;7.88;100.00;101350.81;5061948;28;21012;-80
2022/12/25 01:26:14;;;;;;;16.55;5.07;;;;;;;7.86;100.00;101349.34;5061032;28;20360;-79
2022/12/25 01:28:40;;;;;;;16.75;5.18;;;;;;;7.79;100.00;101351.84;5061393;28;20567;-80
2022/12/25 01:31:10;;;;;;;18.58;5.22;;;;;;;7.83;100.00;101363.81;5060307;28;20039;-80
2022/12/25 01:33:36;;;;;;;17.13;4.40;;;;;;;7.80;100.00;101365.94;5061360;28;20032;-80
2022/12/25 01:36:03;;;;;;;16.80;6.28;;;;;;;7.81;100.00;101378.25;5062666;28;20028;-79
2022/12/25 01:38:28;;;;;;;15.05;5.68;;;;;;;7.77;100.00;101372.41;5042629;28;20089;-80
2022/12/25 01:40:54;;;;;;;18.45;5.60;;;;;;;7.82;100.00;101371.91;5043668;28;20032;-80
2022/12/25 01:43:27;;;;;;;12.05;5.00;;;;;;;7.84;100.00;101381.38;5060486;28;20037;-80
2022/12/25 01:45:53;;;;;;;18.58;5.75;;;;;;;7.84;100.00;101376.06;5057806;28;20049;-80
2022/12/25 01:48:25;;;;;;;18.48;5.85;;;;;;;7.83;100.00;101370.91;5032489;28;20052;-80
2022/12/25 01:50:57;;;;;;;11.48;4.72;;;;;;;7.81;100.00;101371.09;5042604;28;20056;-80
2022/12/25 01:53:23;;;;;;;23.23;7.70;;;;;;;7.82;100.00;101372.75;5036981;28;20036;-80
2022/12/25 01:55:53;;;;;;;14.35;5.38;;;;;;;7.82;100.00;101374.56;5050194;28;20123;-80
2022/12/25 01:58:18;;;;;;;13.68;4.35;;;;;;;7.86;100.00;101384.72;5049636;28;20039;-80
2022/12/25 02:00:44;;;;;;;15.40;4.32;;;;;;;7.90;100.00;101383.38;5031521;28;20029;-79
2022/12/25 02:03:10;;;;;;;10.50;4.13;;;;;;;7.94;100.00;101393.66;5044999;28;20021;-80
2022/12/25 02:05:35;;;;;;;12.32;3.75;;;;;;;7.96;100.00;101399.63;5050285;28;20113;-80
2022/12/25 02:08:08;;;;;;;10.27;4.05;;;;;;;7.98;100.00;101395.81;5041789;28;20060;-80
2022/12/25 02:10:33;;;;;;;13.82;5.93;;;;;;;7.97;100.00;101388.03;5048256;28;20489;-80
2022/12/25 02:13:00;;;;;;;9.27;4.53;;;;;;;7.98;100.00;101387.03;5040729;28;20120;-80
2022/12/25 02:15:33;;;;;;;12.35;4.28;;;;;;;7.98;100.00;101379.06;5048858;28;20503;-80
2022/12/25 02:18:16;;;;;;;17.90;5.63;;;;;;;8.02;100.00;101391.84;5042737;28;20159;-80
2022/12/25 02:21:01;;;;;;;9.85;3.55;;;;;;;8.02;100.00;101389.19;5040788;28;20107;-80
2022/12/25 02:23:58;;;;;;;13.95;5.32;;;;;;;8.03;100.00;101393.50;5043517;28;20086;-79
2022/12/25 02:26:26;;;;;;;13.50;4.20;;;;;;;8.04;100.00;101404.94;5046110;28;20912;-80
2022/12/25 02:29:27;;;;;;;11.20;3.78;;;;;;;8.05;100.00;101402.13;5049714;28;20082;-80
2022/12/25 02:31:58;;;;;;;12.13;4.93;;;;;;;8.05;100.00;101393.34;5035755;28;20037;-79
2022/12/25 02:35:01;;;;;;;12.60;4.67;;;;;;;8.07;100.00;101401.97;5033580;28;20051;-80
2022/12/25 02:37:45;;;;;;;15.75;4.15;;;;;;;8.04;100.00;101402.28;5043019;28;20080;-80
2022/12/25 02:40:28;;;;;;;11.25;3.85;;;;;;;8.08;100.00;101391.16;5042604;28;20039;-80
2022/12/25 03:08:46;;;;;;;12.40;4.45;;;;;;;7.90;100.00;101348.00;5057609;28;20124;-80
2022/12/25 03:11:30;;;;;;;7.55;4.32;;;;;;;7.88;100.00;101340.19;5059205;28;20058;-80
2022/12/25 03:16:53;;;;;;;11.68;4.70;;;;;;;7.77;100.00;101306.03;5062571;28;20032;-80
2022/12/25 03:27:50;;;;;;;9.77;3.30;;;;;;;7.55;100.00;101296.91;5058058;28;20447;-80
2022/12/25 03:33:29;;;;;;;11.30;3.60;;;;;;;7.49;100.00;101294.09;5053327;28;20103;-80
2022/12/25 03:36:04;;;;;;;16.27;5.25;;;;;;;7.47;100.00;101289.78;5053543;28;20045;-80
2022/12/25 04:37:22;;;;;;;10.18;3.10;;;;;;;7.19;100.00;101275.16;5061732;28;20171;-80
2022/12/25 04:39:48;;;;;;;7.22;3.05;;;;;;;7.19;100.00;101285.78;5063565;28;20115;-79
2022/12/25 04:42:14;;;;;;;7.80;3.90;;;;;;;7.18;100.00;101279.66;5061191;28;20040;-80
2022/12/25 04:44:40;;;;;;;6.82;3.08;;;;;;;7.11;100.00;101275.97;5060447;28;20025;-80
2022/12/25 04:47:05;;;;;;;13.15;3.92;;;;;;;7.14;100.00;101285.44;5043381;28;20391;-80
2022/12/25 04:49:30;;;;;;;9.50;3.47;;;;;;;7.10;100.00;101287.59;5060789;28;20399;-80
2022/12/25 04:51:56;;;;;;;12.27;3.95;;;;;;;7.06;100.00;101280.13;5060725;28;20519;-80
2022/12/25 04:54:21;;;;;;;8.57;3.53;;;;;;;7.05;100.00;101278.44;5060079;28;20047;-80
2022/12/25 04:56:46;;;;;;;7.18;3.65;;;;;;;7.05;100.00;101274.00;5062030;28;20106;-80
2022/12/25 04:59:12;;;;;;;10.05;3.78;;;;;;;7.07;100.00;101274.63;5058879;28;20033;-80
2022/12/25 05:01:37;;;;;;;6.60;3.17;;;;;;;7.05;100.00;101266.03;5043907;28;20036;-79
2022/12/25 05:04:03;;;;;;;9.10;3.42;;;;;;;7.01;100.00;101262.84;5043538;28;20036;-80
2022/12/25 05:06:28;;;;;;;10.02;3.50;;;;;;;7.03;100.00;101281.28;5060795;28;20025;-80
2022/12/25 05:08:53;;;;;;;12.93;3.80;;;;;;;6.99;100.00;101272.78;5059581;28;20483;-80
2022/12/25 05:11:19;;;;;;;13.15;4.93;;;;;;;6.99;100.00;101267.50;5060402;28;20029;-80
2022/12/25 05:13:44;;;;;;;8.15;3.67;;;;;;;6.97;100.00;101271.31;5060587;28;20021;-80
2022/12/25 05:16:15;;;;;;;10.85;3.42;;;;;;;6.94;100.00;101264.53;5062580;28;20024;-80
2022/12/25 05:18:41;;;;;;;9.20;4.20;;;;;;;6.86;100.00;101251.22;5042551;28;20549;-79
2022/12/25 05:21:07;;;;;;;6.15;3.90;;;;;;;6.87;100.00;101260.03;5061838;28;20024;-80
2022/12/25 05:23:32;;;;;;;13.93;4.15;;;;;;;6.86;100.00;101253.88;5043464;28;20052;-80
2022/12/25 05:25:58;;;;;;;7.65;3.20;;;;;;;6.85;100.00;101254.06;5043718;28;20348;-80
2022/12/25 05:28:24;;;;;;;13.90;3.35;;;;;;;6.84;100.00;101255.88;5063703;28;20353;-79
2022/12/25 05:30:49;;;;;;;7.35;3.20;;;;;;;6.88;100.00;101259.03;5041318;28;20036;-80
2022/12/25 05:33:14;;;;;;;6.30;3.45;;;;;;;6.93;100.00;101257.53;5059190;28;20029;-80
2022/12/25 05:35:40;;;;;;;10.23;3.50;;;;;;;6.99;100.00;101246.28;5064131;28;20119;-80
2022/12/25 05:38:06;;;;;;;7.93;4.50;;;;;;;7.05;100.00;101249.25;5040754;28;20052;-80
2022/12/25 05:40:33;;;;;;;11.65;3.65;;;;;;;7.08;100.00;101236.53;5045789;28;20491;-79
2022/12/25 05:42:58;;;;;;;9.52;3.40;;;;;;;7.19;100.00;101238.03;5059576;28;20032;-80
2022/12/25 05:45:24;;;;;;;12.98;3.83;;;;;;;7.24;100.00;101241.00;5061139;28;20028;-80
2022/12/25 05:47:49;;;;;;;9.90;4.28;;;;;;;7.24;100.00;101228.56;5060198;28;20055;-80
2022/12/25 05:50:15;;;;;;;9.20;4.43;;;;;;;7.32;100.00;101246.31;5060928;28;20159;-80
2022/12/25 05:52:40;;;;;;;15.60;3.58;;;;;;;7.34;100.00;101241.69;5058691;28;20052;-80
2022/12/25 05:55:06;;;;;;;7.57;3.80;;;;;;;7.38;100.00;101250.13;5057249;28;20040;-80
2022/12/25 05:57:31;;;;;;;9.95;3.58;;;;;;;7.37;100.00;101244.00;5060978;28;20488;-80
2022/12/25 05:59:56;;;;;;;11.20;4.47;;;;;;;7.43;100.00;101239.84;5059859;28;20036;-80
2022/12/25 06:02:23;;;;;;;10.23;3.95;;;;;;;7.44;100.00;101239.69;5056148;28;20032;-80
2022/12/25 06:04:48;;;;;;;9.90;4.13;;;;;;;7.46;100.00;101235.03;5058259;28;20476;-80
2022/12/25 06:07:14;;;;;;;8.88;4.15;;;;;;;7.46;100.00;101212.97;5059030;28;20024;-80
2022/12/25 06:09:39;;;;;;;11.75;4.70;;;;;;;7.55;100.00;101219.13;5062696;28;20032;-80
2022/12/25 06:12:04;;;;;;;6.38;4.18;;;;;;;7.56;100.00;101220.78;5062399;28;20386;-80
2022/12/25 06:14:30;;;;;;;9.57;3.75;;;;;;;7.58;100.00;101214.28;5061222;28;20375;-80
2022/12/25 06:16:55;;;;;;;8.50;4.15;;;;;;;7.63;100.00;101219.94;5056582;28;20040;-80
2022/12/25 06:19:20;;;;;;;10.85;3.97;;;;;;;7.66;100.00;101219.59;5060855;28;20036;-80
2022/12/25 06:21:46;;;;;;;11.15;3.80;;;;;;;7.69;100.00;101229.03;5057120;28;20036;-80
2022/12/25 06:24:12;;;;;;;9.02;4.07;;;;;;;7.71;100.00;101219.09;5060975;28;20105;-80
2022/12/25 06:26:37;;;;;;;7.68;3.28;;;;;;;7.68;100.00;101196.38;5059667;28;20471;-80
2022/12/25 06:29:03;;;;;;;6.57;3.25;;;;;;;7.75;100.00;101196.50;5060637;28;20029;-80
2022/12/25 06:31:29;;;;;;;9.70;3.33;;;;;;;7.76;100.00;101186.72;5059671;28;20036;-80
2022/12/25 06:33:55;;;;;;;5.97;2.58;;;;;;;7.80;100.00;101202.13;5061017;28;20032;-80
2022/12/25 06:36:23;;;;;;;7.25;2.78;;;;;;;7.81;100.00;101200.34;5058883;28;20025;-80
2022/12/25 06:38:49;;;;;;;8.40;2.90;;;;;;;7.80;100.00;101199.47;5058912;28;20038;-80
2022/12/25 06:41:17;;;;;;;5.32;3.08;;;;;;;7.81;100.00;101187.88;5063115;28;20115;-80
2022/12/25 06:43:47;;;;;;;6.72;3.83;;;;;;;7.87;100.00;101187.19;5063544;28;20574;-80
2022/12/25 06:46:12;;;;;;;11.45;3.92;;;;;;;7.87;100.00;101179.22;5062963;28;20044;-80
2022/12/25 06:48:39;;;;;;;8.35;3.05;;;;;;;7.85;100.00;101162.63;5062520;28;20471;-80
2022/12/25 06:51:06;;;;;;;7.65;3.20;;;;;;;7.86;100.00;101158.16;5042302;28;20029;-80
2022/12/25 06:53:32;;;;;;;7.65;2.78;;;;;;;7.88;100.00;101158.78;5060362;28;20028;-80
2022/12/25 06:56:05;;;;;;;8.32;2.97;;;;;;;7.89;100.00;101171.91;5063049;28;20071;-80
2022/12/25 06:58:31;;;;;;;11.50;3.85;;;;;;;7.89;100.00;101160.47;5045367;28;20040;-80
2022/12/25 07:00:56;;;;;;;7.72;3.30;;;;;;;7.86;100.00;101145.72;5062599;28;20040;-80
2022/12/25 07:03:23;;;;;;;17.88;3.85;;;;;;;7.88;100.00;101122.44;5060753;28;20039;-80
2022/12/25 07:05:48;;;;;;;12.50;3.58;;;;;;;7.93;100.00;101126.41;5060576;28;20033;-80
2022/12/25 07:08:13;;;;;;;10.55;3.45;;;;;;;7.90;100.00;101120.44;5045128;28;20043;-80
2022/12/25 07:10:39;;;;;;;8.40;3.78;;;;;;;7.92;100.00;101125.59;5063683;28;20029;-80
2022/12/25 07:13:04;;;;;;;8.38;3.30;;;;;;;7.99;100.00;101131.88;5063406;28;20029;-80
2022/12/25 07:15:30;;;;;;;8.98;4.05;;;;;;;8.00;100.00;101135.34;5063131;28;20032;-80
2022/12/25 07:17:55;;;;;;;11.63;5.85;;;;;;;7.99;100.00;101134.53;5063061;28;20032;-80
2022/12/25 07:20:20;;;;;;;12.38;4.60;;;;;;;7.99;100.00;101144.31;5062526;28;20032;-80
2022/12/25 07:22:46;;;;;;;10.93;4.53;;;;;;;7.97;100.00;101149.00;5062392;28;20066;-80
2022/12/25 07:25:11;;;;;;;13.90;4.43;;;;;;;8.02;100.00;101151.97;5047354;28;20036;-79
2022/12/25 07:27:36;;;;;;;9.50;3.50;;;;;;;8.02;100.00;101151.97;5061912;28;20036;-80
2022/12/25 07:30:02;;;;;;;9.27;3.90;;;;;;;8.04;100.00;101168.53;5042566;28;20028;-80
2022/12/25 07:32:30;;;;;;;8.05;4.57;;;;;;;8.05;100.00;101170.19;5045006;28;20395;-80
2022/12/25 07:34:56;;;;;;;15.35;4.80;;;;;;;8.09;100.00;101179.47;5063430;28;20032;-80
2022/12/25 07:37:21;;;;;;;10.25;4.47;;;;;;;8.08;100.00;101175.16;5044798;28;20082;-80
2022/12/25 07:39:47;;;;;;;9.93;3.67;;;;;;;8.08;100.00;101177.81;5045620;28;20119;-79
2022/12/25 07:42:12;;;;;;;11.48;3.83;;;;;;;8.11;100.00;101185.44;5043519;28;20647;-80
2022/12/25 07:44:37;;;;;;;8.88;4.38;;;;;;;8.10;100.00;101187.28;5046555;28;20030;-80
2022/12/25 07:47:03;;;;;;;11.77;4.35;;;;;;;8.11;100.00;101177.47;5035814;28;20068;-81
2022/12/25 07:49:28;;;;;;;9.35;3.60;;;;;;;8.10;100.00;101151.91;5040055;28;20072;-81
2022/12/25 07:51:54;;;;;;;8.15;3.65;;;;;;;8.06;100.00;101119.53;5046947;28;20071;-80
2022/12/25 07:54:19;;;;;;;14.88;4.72;;;;;;;8.11;100.00;101134.97;5045823;28;20032;-80
2022/12/25 07:56:45;;;;;;;11.52;3.97;;;;;;;8.09;100.00;101136.97;5047887;28;20111;-80
2022/12/25 07:59:10;;;;;;;11.35;4.25;;;;;;;8.05;100.00;101147.13;5018025;28;20037;-81
2022/12/25 08:01:36;;;;;;;10.00;3.78;;;;;;;8.06;100.00;101150.59;5033658;28;20032;-80
2022/12/25 08:04:01;;;;;;;16.08;4.28;;;;;;;8.08;100.00;101189.28;5026299;28;20047;-80
2022/12/25 08:06:32;;;;;;;12.18;4.03;;;;;;;8.07;100.00;101200.91;5041365;28;20134;-80
2022/12/25 08:09:05;;;;;;;10.20;3.95;;;;;;;8.08;100.00;101197.25;5047237;28;20885;-80
2022/12/25 08:11:31;;;;;;;9.05;4.35;;;;;;;8.09;100.00;101200.72;5049576;28;20028;-80
2022/12/25 08:13:57;;;;;;;9.57;4.18;;;;;;;8.07;100.00;101192.94;5047323;28;20044;-80
2022/12/25 08:16:22;;;;;;;12.80;5.28;;;;;;;8.08;100.00;101196.41;5044384;28;20025;-80
2022/12/25 08:18:47;;;;;;;9.57;4.22;;;;;;;8.09;100.00;101198.88;5052072;28;20071;-80
2022/12/25 08:21:14;;;;;;;10.20;4.03;;;;;;;8.01;100.00;101190.94;5047544;28;20021;-80
2022/12/25 08:23:42;;;;;;;9.70;4.35;;;;;;;8.06;100.00;101219.66;5047753;28;20167;-80
2022/12/25 08:26:11;;;;;;;13.20;4.53;;;;;;;8.08;100.00;101236.25;5034104;28;20021;-80
2022/12/25 08:28:36;;;;;;;10.50;4.15;;;;;;;8.06;100.00;101228.44;5043302;28;20503;-80
2022/12/25 08:31:09;;;;;;;8.60;4.43;;;;;;;8.08;100.00;101207.03;5046340;28;20033;-80
2022/12/25 08:33:36;;;;;;;8.63;4.63;;;;;;;8.04;100.00;101197.75;5042300;28;20472;-80
2022/12/25 08:36:04;;;;;;;11.10;3.75;;;;;;;8.05;100.00;101196.78;5041117;28;20171;-80
2022/12/25 08:38:29;;;;;;;9.90;4.47;;;;;;;8.08;100.00;101202.56;5045515;28;20025;-81
2022/12/25 08:40:55;;;;;;;9.85;4.45;;;;;;;8.08;100.00;101204.38;5047229;28;20040;-80
2022/12/25 08:43:20;;;;;;;9.15;5.28;;;;;;;8.09;100.00;101201.53;5044023;28;20108;-80
2022/12/25 08:45:46;;;;;;;13.48;5.72;;;;;;;8.10;100.00;101200.56;5038617;28;20496;-80
2022/12/25 08:48:12;;;;;;;11.90;5.38;;;;;;;8.11;100.00;101212.84;5033324;28;20392;-80
2022/12/25 08:50:37;;;;;;;11.15;4.80;;;;;;;8.10;100.00;101207.72;5041792;28;20115;-80
2022/12/25 08:53:02;;;;;;;8.85;3.72;;;;;;;8.10;100.00;101205.88;5048243;28;20438;-80
2022/12/25 08:55:28;;;;;;;14.68;4.22;;;;;;;8.11;100.00;101204.88;5033302;28;20599;-80
2022/12/25 08:57:53;;;;;;;8.45;3.88;;;;;;;8.13;100.00;101221.47;5033457;28;20033;-80
2022/12/25 09:00:19;;;;;;;7.55;3.70;;;;;;;8.10;100.00;101203.22;5051216;28;20036;-80
2022/12/25 09:02:44;;;;;;;8.68;3.88;;;;;;;8.15;100.00;101209.81;5045389;28;20488;-80
2022/12/25 09:05:09;;;;;;;6.30;3.60;;;;;;;8.15;100.00;101207.16;5047880;28;20380;-80
2022/12/25 09:07:35;;;;;;;8.25;4.25;;;;;;;8.15;100.00;101191.22;5048691;28;20033;-81
2022/12/25 09:10:00;;;;;;;10.27;5.18;;;;;;;8.15;100.00;101185.91;5042120;28;20159;-81
2022/12/25 09:12:25;;;;;;;8.65;5.05;;;;;;;8.16;100.00;101182.28;5045345;28;20025;-80
2022/12/25 09:14:51;;;;;;;12.18;4.30;;;;;;;8.10;100.00;101174.00;5045786;28;20025;-80
2022/12/25 09:17:16;;;;;;;9.40;4.25;;;;;;;8.14;100.00;101174.47;5042635;28;20031;-81
2022/12/25 09:19:41;;;;;;;9.25;3.85;;;;;;;8.17;100.00;101181.25;5032270;28;20545;-81
2022/12/25 09:22:07;;;;;;;8.85;4.03;;;;;;;8.18;100.00;101191.72;5043354;28;20070;-80
2022/12/25 09:24:32;;;;;;;6.18;3.70;;;;;;;8.17;100.00;101199.88;5043376;28;20033;-80
2022/12/25 09:26:57;;;;;;;9.45;4.10;;;;;;;8.26;100.00;101206.81;5033138;28;20082;-80
2022/12/25 09:29:23;;;;;;;7.68;3.85;;;;;;;8.31;100.00;101215.09;5044009;28;20078;-80
2022/12/25 09:31:48;;;;;;;10.88;3.90;;;;;;;8.32;100.00;101198.16;5049008;28;20476;-79
2022/12/25 09:34:14;;;;;;;11.48;5.20;;;;;;;8.31;100.00;101205.28;5041098;28;20065;-80
2022/12/25 09:36:39;;;;;;;9.23;4.03;;;;;;;8.28;100.00;101186.22;5042553;28;20033;-80
2022/12/25 09:39:04;;;;;;;13.20;4.68;;;;;;;8.24;100.00;101183.06;5035611;28;20135;-80
2022/12/25 09:41:44;;;;;;;9.40;4.30;;;;;;;8.25;100.00;101194.50;5047298;28;20025;-80
2022/12/25 09:44:17;;;;;;;10.60;3.55;;;;;;;8.25;100.00;101181.22;5050034;28;20456;-81
2022/12/25 09:47:05;;;;;;;7.97;3.70;;;;;;;8.26;100.00;101165.13;5049339;28;20514;-80
2022/12/25 09:49:37;;;;;;;10.68;3.97;;;;;;;8.23;100.00;101157.50;5059865;28;20048;-80
2022/12/25 09:52:33;;;;;;;8.90;4.18;;;;;;;8.26;100.00;101178.41;5050405;28;20017;-80
2022/12/25 09:55:06;;;;;;;8.75;4.38;;;;;;;8.22;100.00;101171.78;5057047;28;20471;-80
2022/12/25 09:57:32;;;;;;;11.32;4.32;;;;;;;8.23;100.00;101162.00;5052150;28;20079;-80
2022/12/25 09:59:57;;;;;;;12.75;4.75;;;;;;;8.20;100.00;101149.88;5058020;28;20033;-80
2022/12/25 10:02:35;;;;;;;12.85;5.93;;;;;;;8.23;100.00;101152.19;5039512;28;20391;-80
2022/12/25 10:05:38;;;;;;;8.90;3.80;;;;;;;8.25;100.00;101149.34;5055034;28;20029;-80
2022/12/25 10:08:16;;;;;;;8.60;4.30;;;;;;;8.27;100.00;101152.66;5054819;28;20067;-80
2022/12/25 10:11:20;;;;;;;11.13;4.32;;;;;;;8.24;100.00;101145.03;5058359;28;20035;-80
2022/12/25 10:14:10;;;;;;;10.63;5.60;;;;;;;8.28;100.00;101147.19;5049921;28;20415;-80
2022/12/25 10:16:53;;;;;;;13.93;5.90;;;;;;;8.30;100.00;101154.97;5049973;28;20032;-80
2022/12/25 10:19:46;;;;;;;9.93;5.53;;;;;;;8.26;100.00;101127.91;5053655;28;20545;-80
2022/12/25 10:22:43;;;;;;;11.30;4.40;;;;;;;8.31;100.00;101138.03;5053041;28;20020;-80
2022/12/25 10:25:20;;;;;;;8.43;3.72;;;;;;;8.30;100.00;101133.69;5023860;28;20903;-80
2022/12/25 10:27:51;;;;;;;8.73;3.92;;;;;;;8.28;100.00;101122.44;5061755;28;20020;-80
2022/12/25 10:30:27;;;;;;;11.00;4.35;;;;;;;8.32;100.00;101129.88;5057376;28;20394;-80
2022/12/25 10:32:58;;;;;;;10.52;4.53;;;;;;;8.32;100.00;101129.88;5041759;28;20056;-80
2022/12/25 10:35:27;;;;;;;10.30;5.18;;;;;;;8.32;100.00;101113.94;5054400;28;20033;-81
2022/12/25 10:37:56;;;;;;;10.85;5.07;;;;;;;8.29;100.00;101122.25;5041992;28;20047;-81
2022/12/25 10:40:44;;;;;;;14.15;6.57;;;;;;;8.30;100.00;101118.59;5058613;28;20115;-82
2022/12/25 10:43:16;;;;;;;13.95;5.72;;;;;;;8.30;100.00;101115.94;5055525;28;20028;-81
2022/12/25 10:45:44;;;;;;;11.00;5.25;;;;;;;8.28;100.00;101125.91;5041766;28;20021;-81
2022/12/25 10:48:25;;;;;;;10.88;4.20;;;;;;;8.29;100.00;101122.25;5050130;28;20057;-81
2022/12/25 10:50:51;;;;;;;10.00;4.63;;;;;;;8.26;100.00;101113.81;5050241;28;20025;-81
2022/12/25 10:53:23;;;;;;;7.72;3.80;;;;;;;8.26;100.00;101119.94;5049795;28;20285;-81
2022/12/25 10:55:55;;;;;;;9.77;4.85;;;;;;;8.26;100.00;101111.97;5050186;28;20052;-81
2022/12/25 10:58:20;;;;;;;9.88;4.43;;;;;;;8.26;100.00;101103.19;5049930;28;20032;-81
2022/12/25 11:00:57;;;;;;;7.47;4.50;;;;;;;8.29;100.00;101089.53;5032487;28;20032;-81
2022/12/25 11:03:27;;;;;;;9.82;5.50;;;;;;;8.25;100.00;101064.31;5050378;28;20033;-82
2022/12/25 11:05:53;;;;;;;15.18;4.70;;;;;;;8.29;100.00;101060.31;5046797;28;20115;-84
2022/12/25 11:08:22;;;;;;;8.48;4.28;;;;;;;8.30;100.00;101053.97;5045225;28;20028;-81
2022/12/25 11:10:54;;;;;;;7.93;3.80;;;;;;;8.35;100.00;101067.56;5045028;28;20033;-81
2022/12/25 11:13:24;;;;;;;9.20;5.07;;;;;;;8.33;100.00;101072.22;5045266;28;20038;-81
2022/12/25 11:16:01;;;;;;;10.05;5.38;;;;;;;8.35;100.00;101078.19;5043958;28;20032;-81
2022/12/25 11:18:31;;;;;;;10.40;5.55;;;;;;;8.33;100.00;101056.28;5044496;28;20024;-82
2022/12/25 11:20:59;;;;;;;11.35;5.50;;;;;;;8.37;100.00;101062.09;5045420;28;21487;-81
2022/12/25 11:23:28;;;;;;;13.27;5.13;;;;;;;8.34;100.00;101064.09;5045356;28;20643;-81
2022/12/25 11:26:00;;;;;;;10.70;5.05;;;;;;;8.34;100.00;101048.16;5046424;28;20094;-81
2022/12/25 11:28:28;;;;;;;11.93;4.72;;;;;;;8.39;100.00;101049.47;5048952;28;20029;-82
2022/12/25 11:31:11;;;;;;;8.40;4.00;;;;;;;8.34;100.00;101040.16;5049123;28;20021;-82
2022/12/25 11:33:48;;;;;;;10.35;4.55;;;;;;;8.38;100.00;101030.00;5048564;28;21366;-81
2022/12/25 11:36:43;;;;;;;10.45;4.85;;;;;;;8.45;100.00;101023.00;5048085;28;20024;-81
2022/12/25 11:39:29;;;;;;;9.07;4.22;;;;;;;8.47;100.00;101017.53;5048386;28;20452;-81
2022/12/25 11:42:27;;;;;;;6.95;3.78;;;;;;;8.45;100.00;101008.91;5047601;28;20040;-80
2022/12/25 11:45:06;;;;;;;12.18;5.15;;;;;;;8.40;100.00;100998.81;5047975;28;20033;-81
2022/12/25 11:47:58;;;;;;;13.05;6.30;;;;;;;8.46;100.00;101006.06;5048596;28;20076;-81
2022/12/25 11:50:42;;;;;;;12.45;5.22;;;;;;;8.44;100.00;101010.75;5048528;28;20021;-81
2022/12/25 11:53:41;;;;;;;14.55;6.55;;;;;;;8.41;100.00;101007.59;5048933;28;20375;-83
2022/12/25 11:56:16;;;;;;;15.20;6.15;;;;;;;8.33;100.00;101003.13;5042498;28;20040;-81
2022/12/25 11:58:46;;;;;;;11.23;5.18;;;;;;;8.37;100.00;101004.44;5047885;28;20484;-80
2022/12/25 12:01:29;;;;;;;13.27;5.68;;;;;;;8.36;100.00;100997.50;5048369;28;20537;-84
2022/12/25 12:03:58;;;;;;;10.90;4.40;;;;;;;8.35;100.00;100983.34;5048351;28;20029;-82
2022/12/25 12:06:29;;;;;;;12.90;6.35;;;;;;;8.35;100.00;100972.72;5048461;28;20033;-86
2022/12/25 12:09:18;;;;;;;9.82;4.90;;;;;;;8.35;100.00;100964.75;5047876;28;20075;-80
2022/12/25 12:11:54;;;;;;;12.35;6.43;;;;;;;8.34;100.00;100962.28;5047359;28;20372;-82
2022/12/25 12:14:59;;;;;;;12.98;5.80;;;;;;;8.41;100.00;100973.03;5048537;28;20049;-81
2022/12/25 12:17:24;;;;;;;11.95;5.88;;;;;;;8.36;100.00;100973.56;4947138;29;20082;-82
2022/12/25 12:19:51;;;;;;;15.70;7.05;;;;;;;8.33;100.00;100969.44;5029939;28;20521;-85
2022/12/25 12:22:27;;;;;;;13.23;6.88;;;;;;;8.32;100.00;100986.38;5014430;28;20049;-85
2022/12/25 12:24:57;;;;;;;12.60;5.97;;;;;;;8.34;100.00;100989.69;5048243;28;20027;-86
2022/12/25 12:27:25;;;;;;;15.30;6.60;;;;;;;8.37;100.00;100980.53;5048573;28;20021;-82
2022/12/25 12:29:54;;;;;;;16.60;7.15;;;;;;;8.38;100.00;100978.69;5049018;28;20032;-84
2022/12/25 12:32:19;;;;;;;17.95;7.97;;;;;;;8.39;100.00;100977.69;5052581;28;20040;-84
2022/12/25 12:34:48;;;;;;;16.73;7.47;;;;;;;8.34;100.00;100973.75;5052713;28;20823;-84
2022/12/25 12:37:30;;;;;;;20.38;7.63;;;;;;;8.35;100.00;100964.75;5052588;28;20958;-84
2022/12/25 12:39:56;;;;;;;14.95;7.90;;;;;;;8.34;100.00;100957.78;5052649;28;20035;-85
2022/12/25 12:42:26;;;;;;;18.60;9.07;;;;;;;8.39;100.00;100945.81;5052319;28;20041;-83
2022/12/25 12:44:55;;;;;;;11.55;5.82;;;;;;;8.41;100.00;100947.31;5052342;28;20029;-84
2022/12/25 12:47:37;;;;;;;13.43;6.30;;;;;;;8.47;100.00;100945.75;5052413;28;20045;-84
2022/12/25 12:50:04;;;;;;;11.40;5.70;;;;;;;8.49;100.00;100941.09;5026478;28;20028;-84
2022/12/25 12:52:32;;;;;;;11.93;5.78;;;;;;;8.51;100.00;100939.91;5052465;28;20100;-84
2022/12/25 12:55:05;;;;;;;12.90;6.22;;;;;;;8.50;100.00;100940.09;5052430;28;20031;-84
2022/12/25 12:57:34;;;;;;;13.98;6.38;;;;;;;8.52;100.00;100943.41;5052403;28;20029;-84
2022/12/25 13:00:01;;;;;;;12.98;6.22;;;;;;;8.49;100.00;100933.94;5052320;28;20065;-85
2022/12/25 13:02:26;;;;;;;13.32;7.93;;;;;;;8.49;100.00;100938.44;5052163;28;20450;-85
2022/12/25 13:05:39;;;;;;;9.90;5.57;;;;;;;8.52;100.00;100927.44;5052109;28;20116;-83
2022/12/25 13:08:10;;;;;;;12.52;6.45;;;;;;;8.52;100.00;100922.13;5043208;28;20051;-82
2022/12/25 13:10:46;;;;;;;13.60;7.18;;;;;;;8.54;100.00;100920.09;5052297;28;20030;-85
2022/12/25 13:13:16;;;;;;;12.52;6.53;;;;;;;8.55;100.00;100930.56;5052175;28;20029;-84
2022/12/25 13:15:46;;;;;;;12.35;6.43;;;;;;;8.59;100.00;100932.84;5051960;28;20033;-83